• Join FlightAware (Why Join?)
  • Login
  • US Flag 
05:37AM EDT


 

Airport Tracker/Info


-or-


 

Live Flight TrackerFlight Track Log ✈ EJA727 ✈ 09-May-2013 ✈ KVNY - KICT

Flight Track Log - Related Links

Times and Time Zones

All times are in EDT time to prevent confusion due to time zone crossing. See the EJA727 flight status page for this flight to view local times or setup timezone preferences in your user account.

Time Position Orientation Groundspeed Altitude Reporting Facility
EDT Latitude Longitude Course Direction KTS MPH feet Rate Location/Type
02:48PM 34.1642 -118.4750 72° East 211 243 39,000  Level Los Angeles Center
02:50PM 34.1336 -118.4150 122° Southeast 240 276 4,500 -15,300 Descending Los Angeles Center
02:51PM 34.1967 -118.3833 23° Northeast 284 327 7,400 2,880 Climbing Los Angeles Center
02:52PM 34.2742 -118.4203 339° North 291 335 10,600 3,120 Climbing Los Angeles Center
02:53PM 34.3572 -118.4022 10° North 327 376 13,900 3,240 Climbing Los Angeles Center
02:54PM 34.4351 -117.6120 72° East  Level Estimated
02:54PM 34.4431 -118.3461 28° Northeast 350 403 17,400  Level Los Angeles Center
02:55PM 34.5125 -118.2536 48° Northeast 375 432 20,300 2,640 Climbing Los Angeles Center
02:56PM 34.5797 -118.1494 52° Northeast 390 449 22,900 1,920 Climbing Los Angeles Center
02:57PM 34.6364 -117.9972 66° East 445 512 24,300 1,920 Climbing Los Angeles Center
02:58PM 34.6533 -117.8486 82° East 449 517 26,900 2,520 Climbing Los Angeles Center
02:59PM 34.6700 -117.7064 82° East 435 501 29,600 2,160 Climbing Los Angeles Center
03:00PM 34.6844 -117.5661 83° East 426 490 31,400 1,680 Climbing Los Angeles Center
03:01PM 34.7028 -117.3950 83° East 431 496 33,200 1,440 Climbing Los Angeles Center
03:02PM 34.7189 -117.2492 82° East 437 503 34,500 1,200 Climbing Los Angeles Center
03:03PM 34.7331 -117.1017 83° East 442 509 35,800 1,140 Climbing Los Angeles Center
03:04PM 34.7475 -116.9528 83° East 445 512 36,900 960 Climbing Los Angeles Center
03:05PM 34.7633 -116.8014 83° East 453 521 37,800 960 Climbing Los Angeles Center
03:06PM 34.7817 -116.6192 83° East 457 526 38,900 300 Climbing Los Angeles Center
03:07PM 34.7958 -116.4625 84° East 465 535 38,500  Descending Los Angeles Center
03:08PM 34.7950 -116.3006 90° East 478 550 39,000 240 Climbing Los Angeles Center
03:09PM 34.7931 -116.1361 91° East 485 558 39,000  Level Los Angeles Center
03:10PM 34.7917 -115.9736 91° East 485 558 39,000  Level Los Angeles Center
03:11PM 34.7903 -115.8111 91° East 483 556 39,000  Level Los Angeles Center
03:12PM 34.7878 -115.6136 91° East 486 559 39,000  Level Los Angeles Center
03:13PM 34.7842 -115.4417 91° East 487 560 39,000  Level Los Angeles Center
03:14PM 34.7822 -115.2781 91° East 487 560 39,000  Level Los Angeles Center
03:15PM 34.7797 -115.1131 91° East 489 563 39,000  Level Los Angeles Center
03:16PM 34.7761 -114.9489 91° East 488 562 39,000  Level Los Angeles Center
03:17PM 34.7731 -114.7858 91° East 484 557 39,000  Level Los Angeles Center
03:19PM 34.7683 -114.5911 92° East 482 555 39,000  Level Los Angeles Center
03:20PM 34.7650 -114.4294 91° East 479 551 39,000  Level Los Angeles Center
03:21PM 34.7606 -114.2658 92° East 483 556 39,000  Level Los Angeles Center
03:22PM 34.7567 -114.1019 92° East 486 559 39,000  Level Los Angeles Center
03:23PM 34.7525 -113.9411 92° East 484 557 39,000  Level Los Angeles Center
03:24PM 34.7472 -113.7781 92° East 486 559 39,000  Level Los Angeles Center
03:24PM 34.7464 -113.7119 91° East 485 558 39,000  Level Albuquerque Center
03:25PM 34.7422 -113.5503 92° East 485 558 39,000  Level Albuquerque Center
03:26PM 34.7367 -113.3881 92° East 485 558 39,000  Level Albuquerque Center
03:27PM 34.7286 -113.1928 93° East 487 560 39,000  Level Albuquerque Center
03:28PM 34.7228 -113.0358 93° East 486 559 39,000  Level Albuquerque Center
03:29PM 34.7172 -112.8703 92° East 483 556 39,000  Level Albuquerque Center
03:30PM 34.7111 -112.7086 93° East 484 557 39,000  Level Albuquerque Center
03:31PM 34.7061 -112.5467 92° East 484 557 39,000  Level Albuquerque Center
03:32PM 34.7317 -112.3533 81° East 492 566 39,000  Level Albuquerque Center
03:33PM 34.7678 -112.1967 74° East 488 562 39,000  Level Albuquerque Center
03:34PM 34.8036 -112.0378 75° East 490 564 39,000  Level Albuquerque Center
03:35PM 34.8400 -111.8808 74° East 489 563 39,000  Level Albuquerque Center
03:36PM 34.8778 -111.7119 75° East 487 560 39,000  Level Albuquerque Center
03:37PM 34.9203 -111.5556 72° East 486 559 39,000  Level Albuquerque Center
03:38PM 34.9631 -111.3986 72° East 488 562 39,000  Level Albuquerque Center
03:39PM 35.0044 -111.2431 72° East 485 558 39,000  Level Albuquerque Center
03:40PM 35.0542 -111.0542 72° East 486 559 39,000  Level Albuquerque Center
03:41PM 35.0956 -110.8933 72° East 484 557 39,000  Level Albuquerque Center
03:43PM 35.1353 -110.7444 72° East 483 556 39,000  Level Albuquerque Center
03:44PM 35.1811 -110.5692 72° East 484 557 39,000  Level Albuquerque Center
03:45PM 35.2200 -110.4175 73° East 487 560 39,000  Level Albuquerque Center
03:46PM 35.2581 -110.2658 73° East 488 562 39,000  Level Albuquerque Center
03:47PM 35.3047 -110.0897 72° East 488 562 39,000  Level Albuquerque Center
03:48PM 35.3431 -109.9378 73° East 488 562 39,000  Level Albuquerque Center
03:49PM 35.3883 -109.7600 73° East 489 563 39,000  Level Albuquerque Center
03:50PM 35.4272 -109.6061 73° East 492 566 39,000  Level Albuquerque Center
03:51PM 35.4711 -109.4264 73° East 493 567 39,000  Level Albuquerque Center
03:52PM 35.5097 -109.2725 73° East 494 568 39,000  Level Albuquerque Center
03:53PM 35.5542 -109.0917 73° East 496 571 39,000  Level Albuquerque Center
03:54PM 35.5922 -108.9372 73° East 497 572 39,000  Level Albuquerque Center
03:55PM 35.6361 -108.7572 73° East 497 572 39,000  Level Albuquerque Center
03:56PM 35.6742 -108.6017 73° East 499 574 39,000  Level Albuquerque Center
03:57PM 35.7178 -108.4200 73° East 499 574 39,000  Level Albuquerque Center
03:58PM 35.7544 -108.2633 74° East 500 575 39,000  Level Albuquerque Center
03:59PM 35.7975 -108.0819 74° East 498 573 39,000  Level Albuquerque Center
04:00PM 35.8344 -107.9264 74° East 496 571 39,000  Level Albuquerque Center
04:01PM 35.8753 -107.7436 75° East 496 571 39,000  Level Albuquerque Center
04:02PM 35.9128 -107.5856 74° East 500 575 39,000  Level Albuquerque Center
04:03PM 35.9547 -107.4019 74° East 500 575 39,000  Level Albuquerque Center
04:04PM 35.9908 -107.2425 74° East 502 578 39,000  Level Albuquerque Center
04:05PM 36.0256 -107.0931 74° East 500 575 39,000  Level Albuquerque Center
04:06PM 36.0700 -106.8933 75° East 501 577 39,000  Level Albuquerque Center
04:07PM 36.1075 -106.7272 74° East 500 575 39,000  Level Albuquerque Center
04:08PM 36.1453 -106.5636 74° East 496 571 39,000  Level Albuquerque Center
04:09PM 36.1817 -106.4019 74° East 495 570 39,000  Level Albuquerque Center
04:10PM 36.2206 -106.2200 75° East 491 565 39,000  Level Albuquerque Center
04:11PM 36.2539 -106.0719 74° East 492 566 39,000  Level Albuquerque Center
04:12PM 36.2881 -105.9081 75° East 491 565 39,000  Level Albuquerque Center
04:13PM 36.3214 -105.7408 76° East 496 571 39,000  Level Albuquerque Center
04:15PM 36.3633 -105.5456 75° East 491 565 39,000  Level Albuquerque Center
04:16PM 36.3936 -105.3944 76° East 488 562 39,000  Level Albuquerque Center
04:17PM 36.4306 -105.2192 75° East 490 564 39,000  Level Albuquerque Center
04:18PM 36.4678 -105.0350 76° East 491 565 39,000  Level Albuquerque Center
04:19PM 36.5025 -104.8700 75° East 490 564 39,100  Climbing Albuquerque Center
04:20PM 36.5364 -104.7022 76° East 493 567 39,000 -60 Descending Albuquerque Center
04:21PM 36.5700 -104.5358 76° East 492 566 39,000  Level Albuquerque Center
04:22PM 36.6036 -104.3694 76° East 491 565 39,000  Level Albuquerque Center
04:23PM 36.6372 -104.2053 76° East 487 560 39,000  Level Albuquerque Center
04:24PM 36.6744 -104.0167 76° East 488 562 39,000  Level Albuquerque Center
04:25PM 36.7050 -103.8578 76° East 492 566 39,000  Level Albuquerque Center
04:26PM 36.7408 -103.6728 76° East 493 567 39,000  Level Albuquerque Center
04:27PM 36.7708 -103.5144 77° East 494 568 39,000  Level Albuquerque Center
04:28PM 36.8019 -103.3550 76° East 495 570 39,000  Level Albuquerque Center
04:29PM 36.8367 -103.1678 77° East 496 571 39,000  Level Albuquerque Center
04:30PM 36.8678 -103.0086 76° East 496 571 39,000  Level Albuquerque Center
04:31PM 36.9022 -102.8219 77° East 494 568 39,000  Level Albuquerque Center
04:32PM 36.9319 -102.6600 77° East 499 574 39,000  Level Albuquerque Center
04:33PM 36.9633 -102.4867 77° East 495 570 39,000  Level Albuquerque Center
04:34PM 36.9969 -102.3011 77° East 491 565 39,000  Level Albuquerque Center
04:35PM 37.0247 -102.1419 78° East 490 564 39,000  Level Albuquerque Center
04:37PM 37.0547 -101.8744 82° East 487 560 39,000  Level Kansas City Center
04:37PM 37.0575 -101.7944 87° East 488 562 39,000  Level Albuquerque Center
04:38PM 37.0650 -101.6047 87° East 491 565 39,000  Level Albuquerque Center
04:40PM 37.0750 -101.3622 87° East 489 563 39,000  Level Kansas City Center
04:41PM 37.0828 -101.1736 87° East 489 563 39,000  Level Kansas City Center
04:42PM 37.0892 -101.0128 87° East 487 560 39,000  Level Kansas City Center
04:43PM 37.0950 -100.8219 88° East 492 566 39,000  Level Kansas City Center
04:44PM 37.1017 -100.6586 87° East 494 568 39,000  Level Kansas City Center
04:45PM 37.1083 -100.4681 87° East 494 568 39,000  Level Kansas City Center
04:46PM 37.1136 -100.3044 88° East 494 568 39,000  Level Kansas City Center
04:47PM 37.1194 -100.1136 88° East 493 567 39,000  Level Kansas City Center
04:48PM 37.1233 -99.9506 88° East 492 566 39,000 -180 Level Kansas City Center
04:49PM 37.1289 -99.7592 88° East 492 566 38,700 -900 Descending Kansas City Center
04:50PM 37.1333 -99.5953 88° East 493 567 37,200 -1,500 Descending Kansas City Center
04:51PM 37.1369 -99.4100 89° East 489 563 35,600 -1,560 Descending Kansas City Center
04:52PM 37.1414 -99.2419 88° East 484 557 34,000 -1,500 Descending Kansas City Center
04:53PM 37.1450 -99.0803 88° East 481 554 32,500 -1,500 Descending Kansas City Center
04:54PM 37.1472 -98.9053 89° East 494 568 31,000 -1,560 Descending Kansas City Center
04:55PM 37.1519 -98.6889 88° East 512 589 29,300 -1,620 Descending Kansas City Center
04:56PM 37.1531 -98.5094 90° East 517 595 27,700 -1,500 Descending Kansas City Center
04:57PM 37.1553 -98.3356 89° East 510 587 26,200 -1,500 Descending Kansas City Center
04:58PM 37.1694 -98.1706 84° East 499 574 24,700 -1,860 Descending Kansas City Center
04:59PM 37.2142 -98.0922 54° Northeast 448 516 23,300 -2,520 Descending Kansas City Center
04:59PM 37.2419 -98.0472 52° Northeast 448 516 22,100 -3,120 Descending Kansas City Center
05:00PM 37.2858 -97.9819 50° Northeast 397 457 20,200 -3,000 Descending Kansas City Center
05:00PM 37.3128 -97.9403 51° Northeast 412 474 19,000 -3,000 Descending Kansas City Center
05:01PM 37.3542 -97.8797 49° Northeast 371 427 17,200 -3,540 Descending Kansas City Center
05:02PM 37.3908 -97.8236 51° Northeast 374 430 15,400 -3,180 Descending Kansas City Center
05:02PM 37.4242 -97.7772 48° Northeast 352 405 14,000 -2,940 Descending Kansas City Center
05:03PM 37.4675 -97.7619 16° North 340 391 12,400 -3,060 Descending Kansas City Center
05:03PM 37.5133 -97.7639 358° North 315 362 10,900 -2,340 Descending Kansas City Center
05:04PM 37.5550 -97.7558 North 316 364 10,000 -900 Descending Kansas City Center
05:04PM 37.5778 -97.7147 55° Northeast 285 328 10,000 -600 Level Kansas City Center
05:05PM 37.5678 -97.6744 107° East 259 298 9,400 -1,680 Descending Kansas City Center
05:05PM 37.5386 -97.6547 152° Southeast 221 254 8,300 -2,280 Descending Kansas City Center
05:06PM 37.5125 -97.6322 146° Southeast 227 261 7,100 -2,220 Descending Kansas City Center
05:06PM 37.4864 -97.6150 152° Southeast 214 246 6,100 -1,680 Descending Kansas City Center
05:07PM 37.4628 -97.5972 149° Southeast 212 244 5,400 -1,500 Descending Kansas City Center
05:07PM 37.4631 -97.5686 89° East 167 192 4,600 -2,040 Descending Kansas City Center
05:08PM 37.4781 -97.5306 64° Northeast 184 212 3,300 -1,620 Descending Kansas City Center
05:08PM 37.4869 -97.5122 59° Northeast 167 192 3,000 -300 Descending Kansas City Center
05:09PM 37.5058 -97.4875 46° Northeast 169 194 3,000  Level Kansas City Center
05:09PM 37.5219 -97.4831 12° North 150 173 3,000  Level Kansas City Center
05:10PM 37.5450 -97.4694 25° Northeast 157 181 3,000 -120 Level Kansas City Center
05:10PM 37.5600 -97.4639 16° North 151 174 2,900 -600 Descending Kansas City Center
05:11PM 37.5856 -97.4514 21° North 155 178 2,400 -720 Descending Kansas City Center
05:11PM 37.5983 -97.4475 14° North 146 168 2,200 -720 Descending Kansas City Center
05:12PM 37.6211 -97.4347 24° Northeast 148 170 1,700 -720 Descending Kansas City Center
05:12PM 37.6344 -97.4314 11° North 136 157 1,500 -840 Descending Kansas City Center
05:14PM 37.6333 -97.4167 67° East  Level FlightAware Approximate